Hovedside
METAR-TAF:

METAR-TAF

Lufthavner :

Andøya, Norge

Andøya lufthavn

breddegrad: 69-18N, lengdegrad: 016-09E, høyde over havet: 1 m

Gjeldene værobservasjon

Denne rapporten ble laget for 25 minutter siden, klokken 07:20 UTC
Vind 3 kt fra skiftende retning
Temperatur -2°C
Luftfuktighet 86%
Trykk 1020 hPa
Sikt 10 km eller mer
ingen skyer under 1500 m og ingen bygeskyer

METAR: ENAN 240720Z VRB03KT CAVOK M02/M04 Q1020

Tid: 09:45 (07:45 UTC)

Varsel

Varsel gyldig fra 24. klokken 06 UTC til 25. klokken 06 UTC
Vind 8 kt fra Sør
Sikt 10 km eller mer
ingen skyer under 1500 m og ingen bygeskyer

TAF: ENAN 2406/2506 18008KT CAVOK

Værobservasjoner og værvarsel for over 4000 flyplasser (METAR- og TAF-rapporter).

Tilgjengelige stasjoner er representert av de røde og gule prikkene på kartet.

Hold musepekeren over prikken for å se navnet på stasjonen.

Klikk så for å se værobservasjoner og -varsler.

For å forandre kartet kan du klikke på den grønne knappen med svart kryss for å zoome inn, på den grønne knappen med strek for å zoome ut, eller på de grønne pilene for å se tilstøtende kart.


METAR-TAF: